sensor_id;sensor_type;location;lat;lon;timestamp;temperature;humidity
5419;DHT22;2732;52.092;11.556;2023-04-24T00:00:42;13.30;99.90
5419;DHT22;2732;52.092;11.556;2023-04-24T00:05:45;13.20;99.90
5419;DHT22;2732;52.092;11.556;2023-04-24T00:10:46;13.20;99.90
5419;DHT22;2732;52.092;11.556;2023-04-24T00:15:47;13.10;99.90
5419;DHT22;2732;52.092;11.556;2023-04-24T00:20:47;13.10;99.90
5419;DHT22;2732;52.092;11.556;2023-04-24T00:25:48;13.10;99.90
5419;DHT22;2732;52.092;11.556;2023-04-24T00:30:49;13.10;99.90
5419;DHT22;2732;52.092;11.556;2023-04-24T00:35:49;13.00;99.90
5419;DHT22;2732;52.092;11.556;2023-04-24T00:40:50;13.00;99.90
5419;DHT22;2732;52.092;11.556;2023-04-24T00:45:51;13.00;99.90
5419;DHT22;2732;52.092;11.556;2023-04-24T00:50:52;13.00;99.90
5419;DHT22;2732;52.092;11.556;2023-04-24T00:55:52;13.00;99.90
5419;DHT22;2732;52.092;11.556;2023-04-24T01:00:54;13.00;99.90
5419;DHT22;2732;52.092;11.556;2023-04-24T01:05:55;13.00;99.90
5419;DHT22;2732;52.092;11.556;2023-04-24T01:10:57;12.90;99.90
5419;DHT22;2732;52.092;11.556;2023-04-24T01:15:58;12.90;99.90
5419;DHT22;2732;52.092;11.556;2023-04-24T01:20:59;12.90;99.90
5419;DHT22;2732;52.092;11.556;2023-04-24T01:26:05;12.80;99.90
5419;DHT22;2732;52.092;11.556;2023-04-24T01:31:07;12.80;99.90
5419;DHT22;2732;52.092;11.556;2023-04-24T01:36:11;12.70;99.90
5419;DHT22;2732;52.092;11.556;2023-04-24T01:41:12;12.70;99.90
5419;DHT22;2732;52.092;11.556;2023-04-24T01:46:13;12.70;99.90
5419;DHT22;2732;52.092;11.556;2023-04-24T01:51:13;12.60;99.90
5419;DHT22;2732;52.092;11.556;2023-04-24T01:56:14;12.60;99.90
5419;DHT22;2732;52.092;11.556;2023-04-24T02:01:18;12.50;99.90
5419;DHT22;2732;52.092;11.556;2023-04-24T02:06:20;12.40;99.90
5419;DHT22;2732;52.092;11.556;2023-04-24T02:11:21;12.40;99.90
5419;DHT22;2732;52.092;11.556;2023-04-24T02:16:21;12.30;99.90
5419;DHT22;2732;52.092;11.556;2023-04-24T02:21:22;12.20;99.90
5419;DHT22;2732;52.092;11.556;2023-04-24T02:26:22;12.20;99.90
5419;DHT22;2732;52.092;11.556;2023-04-24T02:31:23;12.10;99.90
5419;DHT22;2732;52.092;11.556;2023-04-24T02:36:24;12.10;99.90
5419;DHT22;2732;52.092;11.556;2023-04-24T02:41:25;12.00;99.90
5419;DHT22;2732;52.092;11.556;2023-04-24T02:46:31;12.00;99.90
5419;DHT22;2732;52.092;11.556;2023-04-24T02:51:32;12.00;99.90
5419;DHT22;2732;52.092;11.556;2023-04-24T02:56:32;11.90;99.90
5419;DHT22;2732;52.092;11.556;2023-04-24T03:01:33;11.90;99.90
5419;DHT22;2732;52.092;11.556;2023-04-24T03:06:33;11.80;99.90
5419;DHT22;2732;52.092;11.556;2023-04-24T03:11:35;11.80;99.90
5419;DHT22;2732;52.092;11.556;2023-04-24T03:16:36;11.70;99.90
5419;DHT22;2732;52.092;11.556;2023-04-24T03:21:37;11.70;99.90
5419;DHT22;2732;52.092;11.556;2023-04-24T03:26:40;11.60;99.90
5419;DHT22;2732;52.092;11.556;2023-04-24T03:31:41;11.60;99.90
5419;DHT22;2732;52.092;11.556;2023-04-24T03:36:42;11.50;99.90
5419;DHT22;2732;52.092;11.556;2023-04-24T03:41:42;11.50;99.90
5419;DHT22;2732;52.092;11.556;2023-04-24T03:46:43;11.40;99.90
5419;DHT22;2732;52.092;11.556;2023-04-24T03:51:43;11.30;99.90
5419;DHT22;2732;52.092;11.556;2023-04-24T03:56:45;11.20;99.90
5419;DHT22;2732;52.092;11.556;2023-04-24T04:01:46;11.20;99.90
5419;DHT22;2732;52.092;11.556;2023-04-24T04:06:47;11.10;99.90
5419;DHT22;2732;52.092;11.556;2023-04-24T04:11:48;11.10;99.90
5419;DHT22;2732;52.092;11.556;2023-04-24T04:16:48;11.00;99.90
5419;DHT22;2732;52.092;11.556;2023-04-24T04:21:49;11.00;99.90
5419;DHT22;2732;52.092;11.556;2023-04-24T04:26:56;10.90;99.90
5419;DHT22;2732;52.092;11.556;2023-04-24T04:31:58;10.90;99.90
5419;DHT22;2732;52.092;11.556;2023-04-24T04:36:59;10.80;99.90
5419;DHT22;2732;52.092;11.556;2023-04-24T04:42:01;10.90;99.90
5419;DHT22;2732;52.092;11.556;2023-04-24T04:47:02;10.90;99.90
5419;DHT22;2732;52.092;11.556;2023-04-24T04:52:06;11.00;99.90
5419;DHT22;2732;52.092;11.556;2023-04-24T04:57:06;11.20;99.90
5419;DHT22;2732;52.092;11.556;2023-04-24T05:02:08;11.30;99.90
5419;DHT22;2732;52.092;11.556;2023-04-24T05:07:08;11.40;99.90
5419;DHT22;2732;52.092;11.556;2023-04-24T05:12:09;11.50;99.90
5419;DHT22;2732;52.092;11.556;2023-04-24T05:17:10;11.60;99.90
5419;DHT22;2732;52.092;11.556;2023-04-24T05:22:10;11.80;99.90
5419;DHT22;2732;52.092;11.556;2023-04-24T05:27:11;11.90;99.90
5419;DHT22;2732;52.092;11.556;2023-04-24T05:32:12;12.00;99.90
5419;DHT22;2732;52.092;11.556;2023-04-24T05:37:13;12.10;99.90
5419;DHT22;2732;52.092;11.556;2023-04-24T05:42:13;12.20;99.90
5419;DHT22;2732;52.092;11.556;2023-04-24T05:47:14;12.30;99.90
5419;DHT22;2732;52.092;11.556;2023-04-24T05:52:15;12.40;99.90
5419;DHT22;2732;52.092;11.556;2023-04-24T05:57:16;12.50;99.90
5419;DHT22;2732;52.092;11.556;2023-04-24T06:02:16;12.60;99.90
5419;DHT22;2732;52.092;11.556;2023-04-24T06:07:17;12.60;99.90
5419;DHT22;2732;52.092;11.556;2023-04-24T06:12:18;12.70;99.90
5419;DHT22;2732;52.092;11.556;2023-04-24T06:17:18;12.80;99.90
5419;DHT22;2732;52.092;11.556;2023-04-24T06:22:19;12.90;99.90
5419;DHT22;2732;52.092;11.556;2023-04-24T06:27:20;13.00;99.90
5419;DHT22;2732;52.092;11.556;2023-04-24T06:32:22;13.10;99.90
5419;DHT22;2732;52.092;11.556;2023-04-24T06:37:24;13.30;99.90
5419;DHT22;2732;52.092;11.556;2023-04-24T06:42:28;13.50;99.90
5419;DHT22;2732;52.092;11.556;2023-04-24T06:47:29;13.70;99.90
5419;DHT22;2732;52.092;11.556;2023-04-24T06:52:30;13.90;99.90
5419;DHT22;2732;52.092;11.556;2023-04-24T06:57:33;14.20;99.90
5419;DHT22;2732;52.092;11.556;2023-04-24T07:02:34;14.50;99.90
5419;DHT22;2732;52.092;11.556;2023-04-24T07:07:34;14.70;99.90
5419;DHT22;2732;52.092;11.556;2023-04-24T07:12:37;15.00;99.90
5419;DHT22;2732;52.092;11.556;2023-04-24T07:17:38;15.30;99.90
5419;DHT22;2732;52.092;11.556;2023-04-24T07:22:43;15.30;99.90
5419;DHT22;2732;52.092;11.556;2023-04-24T07:27:43;15.30;99.90
5419;DHT22;2732;52.092;11.556;2023-04-24T07:32:44;15.50;99.90
5419;DHT22;2732;52.092;11.556;2023-04-24T07:37:45;15.70;99.90
5419;DHT22;2732;52.092;11.556;2023-04-24T07:42:46;15.80;99.90
5419;DHT22;2732;52.092;11.556;2023-04-24T07:47:48;15.80;99.90
5419;DHT22;2732;52.092;11.556;2023-04-24T07:52:50;15.80;99.90
5419;DHT22;2732;52.092;11.556;2023-04-24T07:57:51;15.90;99.90
5419;DHT22;2732;52.092;11.556;2023-04-24T08:02:51;16.00;99.90
5419;DHT22;2732;52.092;11.556;2023-04-24T08:07:53;16.00;99.90
5419;DHT22;2732;52.092;11.556;2023-04-24T08:12:53;16.00;99.90
5419;DHT22;2732;52.092;11.556;2023-04-24T08:17:55;16.10;99.90
5419;DHT22;2732;52.092;11.556;2023-04-24T08:22:57;16.30;99.90
5419;DHT22;2732;52.092;11.556;2023-04-24T08:27:57;16.40;99.90
5419;DHT22;2732;52.092;11.556;2023-04-24T08:32:58;17.10;99.90
5419;DHT22;2732;52.092;11.556;2023-04-24T08:37:59;17.90;99.90
5419;DHT22;2732;52.092;11.556;2023-04-24T08:43:00;18.30;99.90
5419;DHT22;2732;52.092;11.556;2023-04-24T08:48:01;18.30;99.90
5419;DHT22;2732;52.092;11.556;2023-04-24T08:53:02;18.40;99.90
5419;DHT22;2732;52.092;11.556;2023-04-24T08:58:04;18.70;99.90
5419;DHT22;2732;52.092;11.556;2023-04-24T09:03:06;19.50;99.90
5419;DHT22;2732;52.092;11.556;2023-04-24T09:08:07;19.70;99.70
5419;DHT22;2732;52.092;11.556;2023-04-24T09:13:09;20.00;99.30
5419;DHT22;2732;52.092;11.556;2023-04-24T09:18:12;19.80;98.60
5419;DHT22;2732;52.092;11.556;2023-04-24T09:23:17;19.40;98.80
5419;DHT22;2732;52.092;11.556;2023-04-24T09:28:18;19.70;98.40
5419;DHT22;2732;52.092;11.556;2023-04-24T09:33:19;19.70;98.10
5419;DHT22;2732;52.092;11.556;2023-04-24T09:38:31;19.40;97.90
5419;DHT22;2732;52.092;11.556;2023-04-24T09:43:38;18.80;97.80
5419;DHT22;2732;52.092;11.556;2023-04-24T09:48:39;18.30;98.00
5419;DHT22;2732;52.092;11.556;2023-04-24T09:53:39;18.00;98.30
5419;DHT22;2732;52.092;11.556;2023-04-24T09:58:46;17.80;98.70
5419;DHT22;2732;52.092;11.556;2023-04-24T10:03:47;17.80;98.70
5419;DHT22;2732;52.092;11.556;2023-04-24T10:08:48;17.70;98.60
5419;DHT22;2732;52.092;11.556;2023-04-24T10:13:51;18.70;98.30
5419;DHT22;2732;52.092;11.556;2023-04-24T10:18:52;19.80;97.10
5419;DHT22;2732;52.092;11.556;2023-04-24T10:23:53;19.70;97.00
5419;DHT22;2732;52.092;11.556;2023-04-24T10:28:54;19.40;96.70
5419;DHT22;2732;52.092;11.556;2023-04-24T10:33:58;19.10;96.60
5419;DHT22;2732;52.092;11.556;2023-04-24T10:39:03;19.10;96.60
5419;DHT22;2732;52.092;11.556;2023-04-24T10:44:13;19.50;94.30
5419;DHT22;2732;52.092;11.556;2023-04-24T10:49:15;19.60;92.80
5419;DHT22;2732;52.092;11.556;2023-04-24T10:54:29;20.10;91.80
5419;DHT22;2732;52.092;11.556;2023-04-24T10:59:36;20.10;91.40
5419;DHT22;2732;52.092;11.556;2023-04-24T11:04:37;20.20;90.60
5419;DHT22;2732;52.092;11.556;2023-04-24T11:09:38;19.90;89.60
5419;DHT22;2732;52.092;11.556;2023-04-24T11:20:03;19.50;90.40
5419;DHT22;2732;52.092;11.556;2023-04-24T11:25:09;19.20;90.50
5419;DHT22;2732;52.092;11.556;2023-04-24T11:30:12;20.50;89.50
5419;DHT22;2732;52.092;11.556;2023-04-24T11:35:21;21.10;87.40
5419;DHT22;2732;52.092;11.556;2023-04-24T11:40:28;20.60;85.90
5419;DHT22;2732;52.092;11.556;2023-04-24T11:45:30;20.20;86.20
5419;DHT22;2732;52.092;11.556;2023-04-24T11:50:31;19.80;86.80
5419;DHT22;2732;52.092;11.556;2023-04-24T11:55:31;20.10;86.40
5419;DHT22;2732;52.092;11.556;2023-04-24T12:00:32;20.50;84.60
5419;DHT22;2732;52.092;11.556;2023-04-24T12:05:34;20.10;85.00
5419;DHT22;2732;52.092;11.556;2023-04-24T12:10:35;20.40;82.30
5419;DHT22;2732;52.092;11.556;2023-04-24T12:15:39;21.10;80.50
5419;DHT22;2732;52.092;11.556;2023-04-24T12:20:40;21.30;78.80
5419;DHT22;2732;52.092;11.556;2023-04-24T12:25:41;21.10;79.30
5419;DHT22;2732;52.092;11.556;2023-04-24T12:30:49;21.80;77.10
5419;DHT22;2732;52.092;11.556;2023-04-24T12:35:54;22.60;74.70
5419;DHT22;2732;52.092;11.556;2023-04-24T12:41:03;23.20;71.90
5419;DHT22;2732;52.092;11.556;2023-04-24T12:46:05;22.80;70.90
5419;DHT22;2732;52.092;11.556;2023-04-24T12:51:07;22.60;72.10
5419;DHT22;2732;52.092;11.556;2023-04-24T12:56:07;22.30;72.30
5419;DHT22;2732;52.092;11.556;2023-04-24T13:01:08;22.20;73.30
5419;DHT22;2732;52.092;11.556;2023-04-24T13:06:09;22.50;73.70
5419;DHT22;2732;52.092;11.556;2023-04-24T13:11:09;23.30;71.50
5419;DHT22;2732;52.092;11.556;2023-04-24T13:16:10;23.90;70.50
5419;DHT22;2732;52.092;11.556;2023-04-24T13:21:11;23.50;69.50
5419;DHT22;2732;52.092;11.556;2023-04-24T13:26:11;22.80;69.30
5419;DHT22;2732;52.092;11.556;2023-04-24T13:31:12;22.30;70.40
5419;DHT22;2732;52.092;11.556;2023-04-24T13:36:13;21.80;71.40
5419;DHT22;2732;52.092;11.556;2023-04-24T13:41:14;21.30;72.40
5419;DHT22;2732;52.092;11.556;2023-04-24T13:46:15;20.90;73.50
5419;DHT22;2732;52.092;11.556;2023-04-24T13:51:16;20.70;73.60
5419;DHT22;2732;52.092;11.556;2023-04-24T13:56:16;20.10;73.30
5419;DHT22;2732;52.092;11.556;2023-04-24T14:01:17;19.70;76.40
5419;DHT22;2732;52.092;11.556;2023-04-24T14:06:19;19.30;78.80
5419;DHT22;2732;52.092;11.556;2023-04-24T14:11:20;19.20;80.70
5419;DHT22;2732;52.092;11.556;2023-04-24T14:16:20;20.00;80.20
5419;DHT22;2732;52.092;11.556;2023-04-24T14:21:21;20.70;77.60
5419;DHT22;2732;52.092;11.556;2023-04-24T14:26:21;20.60;77.80
5419;DHT22;2732;52.092;11.556;2023-04-24T14:31:22;20.20;77.40
5419;DHT22;2732;52.092;11.556;2023-04-24T14:36:23;20.00;78.10
5419;DHT22;2732;52.092;11.556;2023-04-24T14:41:23;19.60;78.40
5419;DHT22;2732;52.092;11.556;2023-04-24T14:46:24;19.30;78.30
5419;DHT22;2732;52.092;11.556;2023-04-24T14:51:25;18.70;77.70
5419;DHT22;2732;52.092;11.556;2023-04-24T14:56:25;18.20;77.70
5419;DHT22;2732;52.092;11.556;2023-04-24T15:01:26;17.80;80.10
5419;DHT22;2732;52.092;11.556;2023-04-24T15:06:27;17.90;82.30
5419;DHT22;2732;52.092;11.556;2023-04-24T15:11:28;18.30;80.50
5419;DHT22;2732;52.092;11.556;2023-04-24T15:16:28;18.60;79.10
5419;DHT22;2732;52.092;11.556;2023-04-24T15:21:29;18.10;78.90
5419;DHT22;2732;52.092;11.556;2023-04-24T15:26:30;17.70;79.30
5419;DHT22;2732;52.092;11.556;2023-04-24T15:31:31;17.40;79.70
5419;DHT22;2732;52.092;11.556;2023-04-24T15:36:32;16.90;80.00
5419;DHT22;2732;52.092;11.556;2023-04-24T15:41:32;16.60;80.80
5419;DHT22;2732;52.092;11.556;2023-04-24T15:46:34;16.30;81.80
5419;DHT22;2732;52.092;11.556;2023-04-24T15:51:36;15.70;82.60
5419;DHT22;2732;52.092;11.556;2023-04-24T15:56:37;15.30;84.90
5419;DHT22;2732;52.092;11.556;2023-04-24T16:01:37;15.10;86.30
5419;DHT22;2732;52.092;11.556;2023-04-24T16:06:38;15.10;87.30
5419;DHT22;2732;52.092;11.556;2023-04-24T16:11:39;14.90;88.00
5419;DHT22;2732;52.092;11.556;2023-04-24T16:16:40;14.70;88.90
5419;DHT22;2732;52.092;11.556;2023-04-24T16:21:41;14.50;88.40
5419;DHT22;2732;52.092;11.556;2023-04-24T16:26:41;14.40;88.40
5419;DHT22;2732;52.092;11.556;2023-04-24T16:31:42;14.20;88.40
5419;DHT22;2732;52.092;11.556;2023-04-24T16:36:43;14.10;88.70
5419;DHT22;2732;52.092;11.556;2023-04-24T16:41:44;14.10;89.30
5419;DHT22;2732;52.092;11.556;2023-04-24T16:46:44;14.00;90.00
5419;DHT22;2732;52.092;11.556;2023-04-24T16:51:45;13.80;90.30
5419;DHT22;2732;52.092;11.556;2023-04-24T16:56:46;13.60;90.90
5419;DHT22;2732;52.092;11.556;2023-04-24T17:01:46;13.40;92.30
5419;DHT22;2732;52.092;11.556;2023-04-24T17:06:47;13.10;93.60
5419;DHT22;2732;52.092;11.556;2023-04-24T17:11:48;12.90;94.50
5419;DHT22;2732;52.092;11.556;2023-04-24T17:16:49;12.70;95.40
5419;DHT22;2732;52.092;11.556;2023-04-24T17:21:50;12.50;96.60
5419;DHT22;2732;52.092;11.556;2023-04-24T17:26:50;12.30;97.10
5419;DHT22;2732;52.092;11.556;2023-04-24T17:31:51;12.10;98.00
5419;DHT22;2732;52.092;11.556;2023-04-24T17:36:52;12.00;98.20
5419;DHT22;2732;52.092;11.556;2023-04-24T17:41:52;11.80;98.80
5419;DHT22;2732;52.092;11.556;2023-04-24T17:46:53;11.70;99.90
5419;DHT22;2732;52.092;11.556;2023-04-24T17:51:54;11.50;99.90
5419;DHT22;2732;52.092;11.556;2023-04-24T17:56:54;11.40;99.90
5419;DHT22;2732;52.092;11.556;2023-04-24T18:01:55;11.40;99.90
5419;DHT22;2732;52.092;11.556;2023-04-24T18:06:56;11.30;99.90
5419;DHT22;2732;52.092;11.556;2023-04-24T18:11:57;11.20;99.90
5419;DHT22;2732;52.092;11.556;2023-04-24T18:16:57;11.10;99.90
5419;DHT22;2732;52.092;11.556;2023-04-24T18:21:58;11.00;99.90
5419;DHT22;2732;52.092;11.556;2023-04-24T18:26:59;10.90;99.90
5419;DHT22;2732;52.092;11.556;2023-04-24T18:32:00;10.80;99.90
5419;DHT22;2732;52.092;11.556;2023-04-24T18:37:01;10.80;99.90
5419;DHT22;2732;52.092;11.556;2023-04-24T18:42:02;10.70;99.90
5419;DHT22;2732;52.092;11.556;2023-04-24T18:47:02;10.60;99.90
5419;DHT22;2732;52.092;11.556;2023-04-24T18:52:03;10.50;99.90
5419;DHT22;2732;52.092;11.556;2023-04-24T18:57:04;10.50;99.90
5419;DHT22;2732;52.092;11.556;2023-04-24T19:02:05;10.40;99.90
5419;DHT22;2732;52.092;11.556;2023-04-24T19:07:10;10.30;99.90
5419;DHT22;2732;52.092;11.556;2023-04-24T19:12:11;10.30;99.90
5419;DHT22;2732;52.092;11.556;2023-04-24T19:17:11;10.30;99.90
5419;DHT22;2732;52.092;11.556;2023-04-24T19:22:13;10.20;99.90
5419;DHT22;2732;52.092;11.556;2023-04-24T19:27:14;10.20;99.90
5419;DHT22;2732;52.092;11.556;2023-04-24T19:32:14;10.20;99.90
5419;DHT22;2732;52.092;11.556;2023-04-24T19:37:15;10.10;99.90
5419;DHT22;2732;52.092;11.556;2023-04-24T19:42:16;10.10;99.90
5419;DHT22;2732;52.092;11.556;2023-04-24T19:47:17;10.00;99.90
5419;DHT22;2732;52.092;11.556;2023-04-24T19:52:17;10.00;99.90
5419;DHT22;2732;52.092;11.556;2023-04-24T19:57:18;9.90;99.90
5419;DHT22;2732;52.092;11.556;2023-04-24T20:02:19;9.90;99.90
5419;DHT22;2732;52.092;11.556;2023-04-24T20:07:20;9.80;99.90
5419;DHT22;2732;52.092;11.556;2023-04-24T20:12:21;9.70;99.90
5419;DHT22;2732;52.092;11.556;2023-04-24T20:17:22;9.70;99.90
5419;DHT22;2732;52.092;11.556;2023-04-24T20:22:22;9.60;99.90
5419;DHT22;2732;52.092;11.556;2023-04-24T20:27:23;9.60;99.90
5419;DHT22;2732;52.092;11.556;2023-04-24T20:32:24;9.60;99.90
5419;DHT22;2732;52.092;11.556;2023-04-24T20:37:24;9.60;99.90
5419;DHT22;2732;52.092;11.556;2023-04-24T20:42:25;9.50;99.90
5419;DHT22;2732;52.092;11.556;2023-04-24T20:47:30;9.50;99.90
5419;DHT22;2732;52.092;11.556;2023-04-24T20:52:30;9.40;99.90
5419;DHT22;2732;52.092;11.556;2023-04-24T20:57:32;9.40;99.90
5419;DHT22;2732;52.092;11.556;2023-04-24T21:02:33;9.30;99.90
5419;DHT22;2732;52.092;11.556;2023-04-24T21:07:33;9.20;99.90
5419;DHT22;2732;52.092;11.556;2023-04-24T21:12:34;9.10;99.90
5419;DHT22;2732;52.092;11.556;2023-04-24T21:17:35;9.00;99.90
5419;DHT22;2732;52.092;11.556;2023-04-24T21:22:35;9.00;99.90
5419;DHT22;2732;52.092;11.556;2023-04-24T21:27:36;8.90;99.90
5419;DHT22;2732;52.092;11.556;2023-04-24T21:32:37;8.80;99.90
5419;DHT22;2732;52.092;11.556;2023-04-24T21:37:39;8.70;99.90
5419;DHT22;2732;52.092;11.556;2023-04-24T21:42:40;8.60;99.90
5419;DHT22;2732;52.092;11.556;2023-04-24T21:47:41;8.60;99.90
5419;DHT22;2732;52.092;11.556;2023-04-24T21:52:42;8.60;99.90
5419;DHT22;2732;52.092;11.556;2023-04-24T21:57:42;8.50;99.90
5419;DHT22;2732;52.092;11.556;2023-04-24T22:02:43;8.40;99.90
5419;DHT22;2732;52.092;11.556;2023-04-24T22:07:44;8.30;99.90
5419;DHT22;2732;52.092;11.556;2023-04-24T22:12:46;8.30;99.90
5419;DHT22;2732;52.092;11.556;2023-04-24T22:17:53;8.20;99.90
5419;DHT22;2732;52.092;11.556;2023-04-24T22:22:54;8.10;99.90
5419;DHT22;2732;52.092;11.556;2023-04-24T22:27:54;8.10;99.90
5419;DHT22;2732;52.092;11.556;2023-04-24T22:32:55;8.00;99.90
5419;DHT22;2732;52.092;11.556;2023-04-24T22:37:56;8.00;99.90
5419;DHT22;2732;52.092;11.556;2023-04-24T22:42:57;7.90;99.90
5419;DHT22;2732;52.092;11.556;2023-04-24T22:47:58;7.80;99.90
5419;DHT22;2732;52.092;11.556;2023-04-24T22:52:58;7.80;99.90
5419;DHT22;2732;52.092;11.556;2023-04-24T22:57:59;7.70;99.90
5419;DHT22;2732;52.092;11.556;2023-04-24T23:03:00;7.60;99.90
5419;DHT22;2732;52.092;11.556;2023-04-24T23:08:00;7.60;99.90
5419;DHT22;2732;52.092;11.556;2023-04-24T23:13:01;7.50;99.90
5419;DHT22;2732;52.092;11.556;2023-04-24T23:18:02;7.50;99.90
5419;DHT22;2732;52.092;11.556;2023-04-24T23:23:03;7.50;99.90
5419;DHT22;2732;52.092;11.556;2023-04-24T23:28:04;7.40;99.90
5419;DHT22;2732;52.092;11.556;2023-04-24T23:33:04;7.30;99.90
5419;DHT22;2732;52.092;11.556;2023-04-24T23:38:05;7.30;99.90
5419;DHT22;2732;52.092;11.556;2023-04-24T23:43:06;7.20;99.90
5419;DHT22;2732;52.092;11.556;2023-04-24T23:48:12;7.20;99.90
5419;DHT22;2732;52.092;11.556;2023-04-24T23:53:12;7.10;99.90
5419;DHT22;2732;52.092;11.556;2023-04-24T23:58:13;7.00;99.90
